sensor_id;sensor_type;location;lat;lon;timestamp;pressure;altitude;pressure_sealevel;temperature;humidity
3434;BME280;1730;41.932;25.548;2023-03-01T00:01:02;102738.72;;;8.09;100.00
3434;BME280;1730;41.932;25.548;2023-03-01T00:03:28;102288.72;;;5.56;100.00
3434;BME280;1730;41.932;25.548;2023-03-01T00:05:54;102593.34;;;7.43;100.00
3434;BME280;1730;41.932;25.548;2023-03-01T00:08:19;102732.31;;;8.38;100.00
3434;BME280;1730;41.932;25.548;2023-03-01T00:10:45;102682.28;;;8.09;100.00
3434;BME280;1730;41.932;25.548;2023-03-01T00:13:11;102730.88;;;8.53;100.00
3434;BME280;1730;41.932;25.548;2023-03-01T00:15:40;102698.25;;;8.39;100.00
3434;BME280;1730;41.932;25.548;2023-03-01T00:18:07;102708.09;;;8.63;100.00
3434;BME280;1730;41.932;25.548;2023-03-01T00:20:34;102629.19;;;8.16;100.00
3434;BME280;1730;41.932;25.548;2023-03-01T00:22:59;102631.09;;;8.37;100.00
3434;BME280;1730;41.932;25.548;2023-03-01T00:25:25;102366.59;;;6.82;100.00
3434;BME280;1730;41.932;25.548;2023-03-01T00:27:50;102630.78;;;8.45;100.00
3434;BME280;1730;41.932;25.548;2023-03-01T00:30:16;102626.81;;;8.55;100.00
3434;BME280;1730;41.932;25.548;2023-03-01T00:32:41;102076.94;;;5.42;100.00
3434;BME280;1730;41.932;25.548;2023-03-01T00:35:07;102426.16;;;7.62;100.00
3434;BME280;1730;41.932;25.548;2023-03-01T00:37:33;102598.00;;;8.80;100.00
3434;BME280;1730;41.932;25.548;2023-03-01T00:39:58;102386.97;;;7.80;100.00
3434;BME280;1730;41.932;25.548;2023-03-01T00:42:24;102532.50;;;8.81;100.00
3434;BME280;1730;41.932;25.548;2023-03-01T00:44:49;102445.06;;;8.49;100.00
3434;BME280;1730;41.932;25.548;2023-03-01T00:47:15;102491.13;;;8.84;100.00
3434;BME280;1730;41.932;25.548;2023-03-01T00:49:40;102444.69;;;8.58;100.00
3434;BME280;1730;41.932;25.548;2023-03-01T00:52:06;102244.50;;;7.40;100.00
3434;BME280;1730;41.932;25.548;2023-03-01T00:54:31;102356.78;;;7.95;100.00
3434;BME280;1730;41.932;25.548;2023-03-01T00:56:57;102437.13;;;8.25;100.00
3434;BME280;1730;41.932;25.548;2023-03-01T00:59:22;102459.03;;;8.37;100.00
3434;BME280;1730;41.932;25.548;2023-03-01T01:01:48;102429.75;;;8.30;100.00
3434;BME280;1730;41.932;25.548;2023-03-01T01:04:13;102454.38;;;8.41;100.00
3434;BME280;1730;41.932;25.548;2023-03-01T01:06:41;102455.62;;;8.54;100.00
3434;BME280;1730;41.932;25.548;2023-03-01T01:09:08;102467.28;;;8.75;100.00
3434;BME280;1730;41.932;25.548;2023-03-01T01:11:34;102448.09;;;8.62;100.00
3434;BME280;1730;41.932;25.548;2023-03-01T01:14:03;102436.34;;;8.65;100.00
3434;BME280;1730;41.932;25.548;2023-03-01T01:16:29;102425.88;;;8.79;100.00
3434;BME280;1730;41.932;25.548;2023-03-01T01:18:56;102385.41;;;8.60;100.00
3434;BME280;1730;41.932;25.548;2023-03-01T01:21:23;102365.47;;;8.45;100.00
3434;BME280;1730;41.932;25.548;2023-03-01T01:23:50;102370.50;;;8.73;100.00
3434;BME280;1730;41.932;25.548;2023-03-01T01:26:22;102346.62;;;8.66;100.00
3434;BME280;1730;41.932;25.548;2023-03-01T01:28:48;102340.47;;;8.64;100.00
3434;BME280;1730;41.932;25.548;2023-03-01T01:31:14;102350.47;;;8.60;100.00
3434;BME280;1730;41.932;25.548;2023-03-01T01:33:39;102349.59;;;8.80;100.00
3434;BME280;1730;41.932;25.548;2023-03-01T01:36:06;102294.19;;;8.35;100.00
3434;BME280;1730;41.932;25.548;2023-03-01T01:38:32;102287.31;;;8.28;100.00
3434;BME280;1730;41.932;25.548;2023-03-01T01:40:59;102189.41;;;7.73;100.00
3434;BME280;1730;41.932;25.548;2023-03-01T01:43:30;102162.59;;;7.51;100.00
3434;BME280;1730;41.932;25.548;2023-03-01T01:46:03;102369.53;;;8.55;100.00
3434;BME280;1730;41.932;25.548;2023-03-01T01:48:43;102083.25;;;7.02;100.00
3434;BME280;1730;41.932;25.548;2023-03-01T01:51:15;102334.00;;;8.47;100.00
3434;BME280;1730;41.932;25.548;2023-03-01T01:53:44;102312.59;;;8.24;100.00
3434;BME280;1730;41.932;25.548;2023-03-01T01:56:12;102168.63;;;7.36;100.00
3434;BME280;1730;41.932;25.548;2023-03-01T01:58:40;102321.09;;;8.13;100.00
3434;BME280;1730;41.932;25.548;2023-03-01T02:01:07;102356.91;;;8.36;100.00
3434;BME280;1730;41.932;25.548;2023-03-01T02:03:35;102363.22;;;8.35;100.00
3434;BME280;1730;41.932;25.548;2023-03-01T02:08:36;102389.56;;;8.47;100.00
3434;BME280;1730;41.932;25.548;2023-03-01T02:11:02;102355.66;;;8.23;100.00
3434;BME280;1730;41.932;25.548;2023-03-01T02:13:32;102229.13;;;7.65;100.00
3434;BME280;1730;41.932;25.548;2023-03-01T02:15:58;102377.44;;;8.58;100.00
3434;BME280;1730;41.932;25.548;2023-03-01T02:18:24;101833.84;;;5.55;100.00
3434;BME280;1730;41.932;25.548;2023-03-01T02:23:54;102321.97;;;8.14;100.00
3434;BME280;1730;41.932;25.548;2023-03-01T02:26:29;102361.47;;;8.34;100.00
3434;BME280;1730;41.932;25.548;2023-03-01T02:28:58;102371.72;;;8.46;100.00
3434;BME280;1730;41.932;25.548;2023-03-01T02:31:24;102368.69;;;8.53;100.00
3434;BME280;1730;41.932;25.548;2023-03-01T02:34:15;102351.16;;;8.23;100.00
3434;BME280;1730;41.932;25.548;2023-03-01T02:36:49;102388.78;;;8.45;100.00
3434;BME280;1730;41.932;25.548;2023-03-01T02:39:24;102351.19;;;8.01;100.00
3434;BME280;1730;41.932;25.548;2023-03-01T02:41:53;102368.09;;;8.03;100.00
3434;BME280;1730;41.932;25.548;2023-03-01T02:44:20;102392.72;;;7.93;100.00
3434;BME280;1730;41.932;25.548;2023-03-01T02:46:48;102406.69;;;7.79;100.00
3434;BME280;1730;41.932;25.548;2023-03-01T02:49:29;102465.19;;;7.94;100.00
3434;BME280;1730;41.932;25.548;2023-03-01T02:52:12;102524.63;;;8.33;100.00
3434;BME280;1730;41.932;25.548;2023-03-01T02:54:43;102527.91;;;8.40;100.00
3434;BME280;1730;41.932;25.548;2023-03-01T02:57:12;102492.34;;;8.10;100.00
3434;BME280;1730;41.932;25.548;2023-03-01T02:59:38;102540.09;;;8.25;100.00
3434;BME280;1730;41.932;25.548;2023-03-01T03:02:27;102343.69;;;7.43;100.00
3434;BME280;1730;41.932;25.548;2023-03-01T03:05:13;102493.47;;;8.49;100.00
3434;BME280;1730;41.932;25.548;2023-03-01T03:07:41;102319.44;;;7.46;100.00
3434;BME280;1730;41.932;25.548;2023-03-01T03:10:10;102480.22;;;8.22;100.00
3434;BME280;1730;41.932;25.548;2023-03-01T03:12:37;102447.78;;;8.04;100.00
3434;BME280;1730;41.932;25.548;2023-03-01T03:15:03;102329.34;;;7.44;100.00
3434;BME280;1730;41.932;25.548;2023-03-01T03:17:39;102480.91;;;8.27;100.00
3434;BME280;1730;41.932;25.548;2023-03-01T03:20:06;102488.47;;;8.40;100.00
3434;BME280;1730;41.932;25.548;2023-03-01T03:22:37;102516.19;;;8.64;100.00
3434;BME280;1730;41.932;25.548;2023-03-01T03:25:03;102287.28;;;7.44;100.00
3434;BME280;1730;41.932;25.548;2023-03-01T03:27:29;102519.34;;;8.74;100.00
3434;BME280;1730;41.932;25.548;2023-03-01T03:29:57;102423.22;;;8.57;100.00
3434;BME280;1730;41.932;25.548;2023-03-01T03:32:22;102412.78;;;8.49;100.00
3434;BME280;1730;41.932;25.548;2023-03-01T03:34:48;102398.03;;;8.59;100.00
3434;BME280;1730;41.932;25.548;2023-03-01T03:37:14;102036.75;;;6.60;100.00
3434;BME280;1730;41.932;25.548;2023-03-01T03:39:59;102228.72;;;7.54;100.00
3434;BME280;1730;41.932;25.548;2023-03-01T03:42:25;102244.19;;;7.47;100.00
3434;BME280;1730;41.932;25.548;2023-03-01T03:45:09;102246.16;;;7.64;100.00
3434;BME280;1730;41.932;25.548;2023-03-01T03:47:35;102313.72;;;7.77;100.00
3434;BME280;1730;41.932;25.548;2023-03-01T03:50:19;102354.56;;;7.85;100.00
3434;BME280;1730;41.932;25.548;2023-03-01T03:52:45;102287.50;;;7.38;100.00
3434;BME280;1730;41.932;25.548;2023-03-01T03:55:11;102452.59;;;8.18;100.00
3434;BME280;1730;41.932;25.548;2023-03-01T03:57:38;102461.22;;;8.26;100.00
3434;BME280;1730;41.932;25.548;2023-03-01T04:00:05;102339.06;;;7.46;100.00
3434;BME280;1730;41.932;25.548;2023-03-01T04:02:31;102475.19;;;8.57;100.00
3434;BME280;1730;41.932;25.548;2023-03-01T04:04:56;102364.22;;;8.10;100.00
3434;BME280;1730;41.932;25.548;2023-03-01T04:07:22;102320.00;;;7.76;100.00
3434;BME280;1730;41.932;25.548;2023-03-01T04:09:47;102375.34;;;8.23;100.00
3434;BME280;1730;41.932;25.548;2023-03-01T04:12:13;102397.25;;;8.36;100.00
3434;BME280;1730;41.932;25.548;2023-03-01T04:14:38;102216.47;;;7.25;100.00
3434;BME280;1730;41.932;25.548;2023-03-01T04:17:04;102311.75;;;7.58;100.00
3434;BME280;1730;41.932;25.548;2023-03-01T04:19:31;101973.72;;;5.60;100.00
3434;BME280;1730;41.932;25.548;2023-03-01T04:22:04;102122.19;;;6.46;100.00
3434;BME280;1730;41.932;25.548;2023-03-01T04:24:37;102304.94;;;7.50;100.00
3434;BME280;1730;41.932;25.548;2023-03-01T04:27:03;102283.00;;;7.39;100.00
3434;BME280;1730;41.932;25.548;2023-03-01T04:29:28;102249.81;;;7.19;100.00
3434;BME280;1730;41.932;25.548;2023-03-01T04:31:54;102405.47;;;7.88;100.00
3434;BME280;1730;41.932;25.548;2023-03-01T04:34:19;102467.47;;;8.50;100.00
3434;BME280;1730;41.932;25.548;2023-03-01T04:36:45;102485.53;;;8.23;100.00
3434;BME280;1730;41.932;25.548;2023-03-01T04:39:11;102263.41;;;7.15;100.00
3434;BME280;1730;41.932;25.548;2023-03-01T04:41:40;102295.56;;;7.38;100.00
3434;BME280;1730;41.932;25.548;2023-03-01T04:44:08;102308.88;;;7.18;100.00
3434;BME280;1730;41.932;25.548;2023-03-01T04:46:35;102304.31;;;7.43;100.00
3434;BME280;1730;41.932;25.548;2023-03-01T04:49:02;102466.91;;;8.42;100.00
3434;BME280;1730;41.932;25.548;2023-03-01T04:51:33;102437.13;;;8.25;100.00
3434;BME280;1730;41.932;25.548;2023-03-01T04:54:00;101930.81;;;5.38;100.00
3434;BME280;1730;41.932;25.548;2023-03-01T04:56:26;102467.19;;;8.56;100.00
3434;BME280;1730;41.932;25.548;2023-03-01T04:58:53;102261.50;;;7.62;100.00
3434;BME280;1730;41.932;25.548;2023-03-01T05:01:20;102446.06;;;8.89;100.00
3434;BME280;1730;41.932;25.548;2023-03-01T05:03:48;102380.59;;;8.48;100.00
3434;BME280;1730;41.932;25.548;2023-03-01T05:06:15;102282.59;;;7.71;100.00
3434;BME280;1730;41.932;25.548;2023-03-01T05:08:42;102374.47;;;8.23;100.00
3434;BME280;1730;41.932;25.548;2023-03-01T05:11:08;102393.47;;;8.40;100.00
3434;BME280;1730;41.932;25.548;2023-03-01T05:13:36;102376.09;;;8.27;100.00
3434;BME280;1730;41.932;25.548;2023-03-01T05:16:02;102395.28;;;8.39;100.00
3434;BME280;1730;41.932;25.548;2023-03-01T05:18:30;102386.78;;;8.28;100.00
3434;BME280;1730;41.932;25.548;2023-03-01T05:21:05;102339.56;;;8.21;100.00
3434;BME280;1730;41.932;25.548;2023-03-01T05:23:32;102380.53;;;8.49;100.00
3434;BME280;1730;41.932;25.548;2023-03-01T05:25:59;102191.56;;;7.43;100.00
3434;BME280;1730;41.932;25.548;2023-03-01T05:28:26;102394.31;;;8.42;100.00
3434;BME280;1730;41.932;25.548;2023-03-01T05:30:54;102373.69;;;8.42;100.00
3434;BME280;1730;41.932;25.548;2023-03-01T05:33:19;102361.59;;;8.31;100.00
3434;BME280;1730;41.932;25.548;2023-03-01T05:35:49;102371.84;;;8.43;100.00
3434;BME280;1730;41.932;25.548;2023-03-01T05:38:16;102382.47;;;8.66;100.00
3434;BME280;1730;41.932;25.548;2023-03-01T05:40:43;102321.37;;;8.29;100.00
3434;BME280;1730;41.932;25.548;2023-03-01T05:43:09;102349.03;;;8.51;100.00
3434;BME280;1730;41.932;25.548;2023-03-01T05:45:36;102345.44;;;8.52;100.00
3434;BME280;1730;41.932;25.548;2023-03-01T05:48:03;102340.97;;;8.51;100.00
3434;BME280;1730;41.932;25.548;2023-03-01T05:50:33;102347.25;;;8.52;100.00
3434;BME280;1730;41.932;25.548;2023-03-01T05:53:04;102337.84;;;8.42;100.00
3434;BME280;1730;41.932;25.548;2023-03-01T05:55:34;102355.47;;;8.27;100.00
3434;BME280;1730;41.932;25.548;2023-03-01T05:58:09;102360.66;;;8.10;100.00
3434;BME280;1730;41.932;25.548;2023-03-01T06:00:35;102403.69;;;8.32;100.00
3434;BME280;1730;41.932;25.548;2023-03-01T06:03:01;102315.06;;;7.65;100.00
3434;BME280;1730;41.932;25.548;2023-03-01T06:05:27;102458.69;;;8.67;100.00
3434;BME280;1730;41.932;25.548;2023-03-01T06:07:53;102379.72;;;8.04;100.00
3434;BME280;1730;41.932;25.548;2023-03-01T06:10:20;102441.53;;;8.26;100.00
3434;BME280;1730;41.932;25.548;2023-03-01T06:12:46;102466.72;;;8.46;100.00
3434;BME280;1730;41.932;25.548;2023-03-01T06:15:14;102359.28;;;7.78;100.00
3434;BME280;1730;41.932;25.548;2023-03-01T06:17:42;102443.66;;;8.18;100.00
3434;BME280;1730;41.932;25.548;2023-03-01T06:20:13;102455.66;;;8.09;100.00
3434;BME280;1730;41.932;25.548;2023-03-01T06:22:40;102500.87;;;8.43;100.00
3434;BME280;1730;41.932;25.548;2023-03-01T06:25:11;102502.03;;;8.37;100.00
3434;BME280;1730;41.932;25.548;2023-03-01T06:27:43;102361.47;;;7.68;100.00
3434;BME280;1730;41.932;25.548;2023-03-01T06:30:10;102480.94;;;8.48;100.00
3434;BME280;1730;41.932;25.548;2023-03-01T06:32:37;102483.13;;;8.60;100.00
3434;BME280;1730;41.932;25.548;2023-03-01T06:35:03;102462.97;;;8.50;100.00
3434;BME280;1730;41.932;25.548;2023-03-01T06:37:29;102489.56;;;8.78;100.00
3434;BME280;1730;41.932;25.548;2023-03-01T06:39:55;102259.78;;;7.59;100.00
3434;BME280;1730;41.932;25.548;2023-03-01T06:42:20;102209.81;;;7.35;100.00
3434;BME280;1730;41.932;25.548;2023-03-01T06:44:46;102277.53;;;7.85;100.00
3434;BME280;1730;41.932;25.548;2023-03-01T06:47:12;102418.62;;;8.81;100.00
3434;BME280;1730;41.932;25.548;2023-03-01T06:49:37;102390.94;;;8.57;100.00
3434;BME280;1730;41.932;25.548;2023-03-01T06:52:03;102392.66;;;8.59;100.00
3434;BME280;1730;41.932;25.548;2023-03-01T06:54:28;102388.19;;;8.58;100.00
3434;BME280;1730;41.932;25.548;2023-03-01T06:56:54;102230.53;;;7.53;100.00
3434;BME280;1730;41.932;25.548;2023-03-01T06:59:19;102385.28;;;8.21;100.00
3434;BME280;1730;41.932;25.548;2023-03-01T07:01:45;102338.53;;;7.82;100.00
3434;BME280;1730;41.932;25.548;2023-03-01T07:04:11;102285.16;;;7.52;100.00
3434;BME280;1730;41.932;25.548;2023-03-01T07:06:36;102423.16;;;8.15;100.00
3434;BME280;1730;41.932;25.548;2023-03-01T07:09:02;102447.19;;;8.41;100.00
3434;BME280;1730;41.932;25.548;2023-03-01T07:11:28;102330.56;;;7.58;100.00
3434;BME280;1730;41.932;25.548;2023-03-01T07:13:53;102496.53;;;8.62;100.00
3434;BME280;1730;41.932;25.548;2023-03-01T07:16:20;102501.56;;;8.70;100.00
3434;BME280;1730;41.932;25.548;2023-03-01T07:18:46;102474.59;;;8.51;100.00
3434;BME280;1730;41.932;25.548;2023-03-01T07:21:13;102487.53;;;8.63;100.00
3434;BME280;1730;41.932;25.548;2023-03-01T07:23:39;102475.88;;;8.63;100.00
3434;BME280;1730;41.932;25.548;2023-03-01T07:26:04;102344.75;;;7.84;100.00
3434;BME280;1730;41.932;25.548;2023-03-01T07:28:30;102497.19;;;8.89;100.00
3434;BME280;1730;41.932;25.548;2023-03-01T07:31:01;102469.53;;;8.85;100.00
3434;BME280;1730;41.932;25.548;2023-03-01T07:33:26;102298.75;;;7.91;100.00
3434;BME280;1730;41.932;25.548;2023-03-01T07:35:59;102419.53;;;8.59;100.00
3434;BME280;1730;41.932;25.548;2023-03-01T07:38:25;102310.59;;;8.07;100.00
3434;BME280;1730;41.932;25.548;2023-03-01T07:40:51;102403.06;;;8.67;100.00
3434;BME280;1730;41.932;25.548;2023-03-01T07:43:17;102391.56;;;8.64;100.00
3434;BME280;1730;41.932;25.548;2023-03-01T07:45:43;102382.87;;;8.37;100.00
3434;BME280;1730;41.932;25.548;2023-03-01T07:48:09;102211.78;;;7.30;100.00
3434;BME280;1730;41.932;25.548;2023-03-01T07:50:35;102399.16;;;8.10;100.00
3434;BME280;1730;41.932;25.548;2023-03-01T07:53:00;102481.59;;;8.55;100.00
3434;BME280;1730;41.932;25.548;2023-03-01T07:55:26;102378.59;;;7.88;100.00
3434;BME280;1730;41.932;25.548;2023-03-01T07:57:51;102484.16;;;8.36;100.00
3434;BME280;1730;41.932;25.548;2023-03-01T08:00:17;102255.88;;;7.01;100.00
3434;BME280;1730;41.932;25.548;2023-03-01T08:02:43;102391.81;;;7.70;100.00
3434;BME280;1730;41.932;25.548;2023-03-01T08:05:09;102535.66;;;8.47;100.00
3434;BME280;1730;41.932;25.548;2023-03-01T08:07:35;102554.78;;;8.63;100.00
3434;BME280;1730;41.932;25.548;2023-03-01T08:10:00;102552.19;;;8.60;100.00
3434;BME280;1730;41.932;25.548;2023-03-01T08:12:27;102527.00;;;8.41;100.00
3434;BME280;1730;41.932;25.548;2023-03-01T08:14:53;102572.41;;;8.70;100.00
3434;BME280;1730;41.932;25.548;2023-03-01T08:17:19;102530.09;;;8.30;100.00
3434;BME280;1730;41.932;25.548;2023-03-01T08:19:44;102138.53;;;6.15;100.00
3434;BME280;1730;41.932;25.548;2023-03-01T08:22:10;102564.41;;;8.69;100.00
3434;BME280;1730;41.932;25.548;2023-03-01T08:24:35;102534.50;;;8.33;100.00
3434;BME280;1730;41.932;25.548;2023-03-01T08:27:01;102374.09;;;7.43;100.00
3434;BME280;1730;41.932;25.548;2023-03-01T08:29:31;102551.31;;;8.38;100.00
3434;BME280;1730;41.932;25.548;2023-03-01T08:31:56;102576.88;;;8.48;100.00
3434;BME280;1730;41.932;25.548;2023-03-01T08:34:22;102526.53;;;8.06;100.00
3434;BME280;1730;41.932;25.548;2023-03-01T08:36:48;102593.63;;;8.33;100.00
3434;BME280;1730;41.932;25.548;2023-03-01T08:39:16;102612.72;;;8.48;100.00
3434;BME280;1730;41.932;25.548;2023-03-01T08:41:42;102599.94;;;8.32;100.00
3434;BME280;1730;41.932;25.548;2023-03-01T08:44:09;102647.09;;;8.64;100.00
3434;BME280;1730;41.932;25.548;2023-03-01T08:46:38;102614.78;;;8.42;100.00
3434;BME280;1730;41.932;25.548;2023-03-01T08:49:14;102624.88;;;8.58;100.00
3434;BME280;1730;41.932;25.548;2023-03-01T08:51:41;102649.50;;;8.93;100.00
3434;BME280;1730;41.932;25.548;2023-03-01T08:54:11;102520.84;;;8.14;100.00
3434;BME280;1730;41.932;25.548;2023-03-01T08:56:37;102596.44;;;8.75;100.00
3434;BME280;1730;41.932;25.548;2023-03-01T08:59:03;102583.66;;;8.80;100.00
3434;BME280;1730;41.932;25.548;2023-03-01T09:01:29;102572.06;;;8.78;100.00
3434;BME280;1730;41.932;25.548;2023-03-01T09:03:55;102557.25;;;8.89;100.00
3434;BME280;1730;41.932;25.548;2023-03-01T09:06:21;102531.84;;;8.96;100.00
3434;BME280;1730;41.932;25.548;2023-03-01T09:08:48;102500.38;;;8.98;100.00
3434;BME280;1730;41.932;25.548;2023-03-01T09:11:19;102499.09;;;9.07;100.00
3434;BME280;1730;41.932;25.548;2023-03-01T09:13:46;102488.81;;;9.17;100.00
3434;BME280;1730;41.932;25.548;2023-03-01T09:16:13;102444.44;;;8.85;100.00
3434;BME280;1730;41.932;25.548;2023-03-01T09:18:39;102434.63;;;8.84;100.00
3434;BME280;1730;41.932;25.548;2023-03-01T09:21:10;102426.87;;;8.76;100.00
3434;BME280;1730;41.932;25.548;2023-03-01T09:23:38;102432.94;;;8.81;100.00
3434;BME280;1730;41.932;25.548;2023-03-01T09:26:12;102446.66;;;8.95;100.00
3434;BME280;1730;41.932;25.548;2023-03-01T09:28:39;102306.78;;;8.13;100.00
3434;BME280;1730;41.932;25.548;2023-03-01T09:31:06;102394.50;;;8.57;100.00
3434;BME280;1730;41.932;25.548;2023-03-01T09:33:32;102401.66;;;8.58;100.00
3434;BME280;1730;41.932;25.548;2023-03-01T09:35:59;102394.56;;;8.56;100.00
3434;BME280;1730;41.932;25.548;2023-03-01T09:38:26;102411.66;;;8.55;100.00
3434;BME280;1730;41.932;25.548;2023-03-01T09:40:53;102420.81;;;8.51;100.00
3434;BME280;1730;41.932;25.548;2023-03-01T09:43:29;102445.16;;;8.68;100.00
3434;BME280;1730;41.932;25.548;2023-03-01T09:46:00;102416.37;;;8.50;100.00
3434;BME280;1730;41.932;25.548;2023-03-01T09:48:36;102435.47;;;8.64;100.00
3434;BME280;1730;41.932;25.548;2023-03-01T09:51:06;102437.41;;;8.60;100.00
3434;BME280;1730;41.932;25.548;2023-03-01T09:53:34;102406.75;;;8.65;100.00
3434;BME280;1730;41.932;25.548;2023-03-01T09:56:24;102392.66;;;8.59;100.00
3434;BME280;1730;41.932;25.548;2023-03-01T09:58:59;102394.56;;;8.56;100.00
3434;BME280;1730;41.932;25.548;2023-03-01T10:04:28;102310.47;;;8.10;100.00
3434;BME280;1730;41.932;25.548;2023-03-01T10:07:09;102407.09;;;8.57;100.00
3434;BME280;1730;41.932;25.548;2023-03-01T10:09:44;102361.34;;;8.37;100.00
3434;BME280;1730;41.932;25.548;2023-03-01T10:12:15;102362.37;;;8.54;100.00
3434;BME280;1730;41.932;25.548;2023-03-01T10:15:17;102342.44;;;8.38;100.00
3434;BME280;1730;41.932;25.548;2023-03-01T10:17:52;102358.47;;;8.62;100.00
3434;BME280;1730;41.932;25.548;2023-03-01T10:20:23;102366.63;;;8.80;100.00
3434;BME280;1730;41.932;25.548;2023-03-01T10:22:50;102167.66;;;7.59;100.00
3434;BME280;1730;41.932;25.548;2023-03-01T10:31:02;102328.06;;;8.80;100.00
3434;BME280;1730;41.932;25.548;2023-03-01T10:33:31;102305.69;;;8.79;100.00
3434;BME280;1730;41.932;25.548;2023-03-01T10:35:58;102094.78;;;7.46;100.00
3434;BME280;1730;41.932;25.548;2023-03-01T10:38:24;102137.25;;;7.58;100.00
3434;BME280;1730;41.932;25.548;2023-03-01T10:40:52;102264.03;;;8.49;100.00
3434;BME280;1730;41.932;25.548;2023-03-01T10:43:19;102317.16;;;9.03;100.00
3434;BME280;1730;41.932;25.548;2023-03-01T10:45:45;102298.97;;;9.08;100.00
3434;BME280;1730;41.932;25.548;2023-03-01T10:51:05;102090.16;;;7.90;100.00
3434;BME280;1730;41.932;25.548;2023-03-01T10:53:42;102230.09;;;8.65;100.00
3434;BME280;1730;41.932;25.548;2023-03-01T10:56:13;102280.50;;;9.19;100.00
3434;BME280;1730;41.932;25.548;2023-03-01T10:58:41;102224.09;;;8.79;100.00
3434;BME280;1730;41.932;25.548;2023-03-01T11:01:27;102238.59;;;8.95;100.00
3434;BME280;1730;41.932;25.548;2023-03-01T11:04:10;102234.16;;;8.94;100.00
3434;BME280;1730;41.932;25.548;2023-03-01T11:06:38;102226.09;;;9.13;100.00
3434;BME280;1730;41.932;25.548;2023-03-01T11:09:33;102210.56;;;9.18;100.00
3434;BME280;1730;41.932;25.548;2023-03-01T11:12:11;102037.59;;;8.03;100.00
3434;BME280;1730;41.932;25.548;2023-03-01T11:14:49;102159.37;;;8.63;100.00
3434;BME280;1730;41.932;25.548;2023-03-01T11:17:25;102200.31;;;8.70;100.00
3434;BME280;1730;41.932;25.548;2023-03-01T11:22:32;102222.12;;;9.20;100.00
3434;BME280;1730;41.932;25.548;2023-03-01T11:25:00;102079.78;;;8.40;100.00
3434;BME280;1730;41.932;25.548;2023-03-01T11:27:34;102163.75;;;9.03;100.00
3434;BME280;1730;41.932;25.548;2023-03-01T11:30:29;102155.13;;;9.14;100.00
3434;BME280;1730;41.932;25.548;2023-03-01T11:35:53;102097.94;;;9.09;100.00
3434;BME280;1730;41.932;25.548;2023-03-01T11:38:25;102035.09;;;8.92;100.00
3434;BME280;1730;41.932;25.548;2023-03-01T11:44:02;102004.03;;;8.68;100.00
3434;BME280;1730;41.932;25.548;2023-03-01T11:57:46;102108.37;;;9.33;100.00
3434;BME280;1730;41.932;25.548;2023-03-01T12:00:50;102082.09;;;9.38;100.00
3434;BME280;1730;41.932;25.548;2023-03-01T12:12:16;102031.41;;;9.29;100.00
3434;BME280;1730;41.932;25.548;2023-03-01T12:22:37;102014.44;;;9.27;100.00
3434;BME280;1730;41.932;25.548;2023-03-01T12:25:14;102008.53;;;9.21;100.00
3434;BME280;1730;41.932;25.548;2023-03-01T12:28:37;102060.37;;;9.59;100.00
3434;BME280;1730;41.932;25.548;2023-03-01T12:37:10;102055.06;;;9.40;100.00
3434;BME280;1730;41.932;25.548;2023-03-01T12:43:10;102011.53;;;9.32;100.00
3434;BME280;1730;41.932;25.548;2023-03-01T12:51:11;102023.41;;;9.28;100.00
3434;BME280;1730;41.932;25.548;2023-03-01T12:53:42;102044.88;;;9.46;100.00
3434;BME280;1730;41.932;25.548;2023-03-01T12:56:12;102014.16;;;9.33;100.00
3434;BME280;1730;41.932;25.548;2023-03-01T13:12:51;101973.91;;;9.13;100.00
3434;BME280;1730;41.932;25.548;2023-03-01T13:15:26;101934.75;;;8.90;100.00
3434;BME280;1730;41.932;25.548;2023-03-01T13:26:08;101891.06;;;9.02;100.00
3434;BME280;1730;41.932;25.548;2023-03-01T13:34:00;101942.72;;;8.92;100.00
3434;BME280;1730;41.932;25.548;2023-03-01T13:39:31;101977.66;;;9.11;100.00
3434;BME280;1730;41.932;25.548;2023-03-01T13:42:03;102014.62;;;9.24;100.00
3434;BME280;1730;41.932;25.548;2023-03-01T13:44:32;102018.34;;;9.39;100.00
3434;BME280;1730;41.932;25.548;2023-03-01T13:49:57;101974.47;;;9.02;100.00
3434;BME280;1730;41.932;25.548;2023-03-01T13:52:45;101991.16;;;8.75;100.00
3434;BME280;1730;41.932;25.548;2023-03-01T13:57:38;102088.81;;;9.30;100.00
3434;BME280;1730;41.932;25.548;2023-03-01T14:00:05;102099.38;;;9.34;100.00
3434;BME280;1730;41.932;25.548;2023-03-01T14:02:31;101979.03;;;8.66;100.00
3434;BME280;1730;41.932;25.548;2023-03-01T14:05:00;101985.25;;;8.85;100.00
3434;BME280;1730;41.932;25.548;2023-03-01T14:07:27;102053.97;;;9.27;100.00
3434;BME280;1730;41.932;25.548;2023-03-01T14:09:58;101974.38;;;8.87;100.00
3434;BME280;1730;41.932;25.548;2023-03-01T14:12:37;102038.50;;;9.30;100.00
3434;BME280;1730;41.932;25.548;2023-03-01T14:15:19;102015.16;;;9.31;100.00
3434;BME280;1730;41.932;25.548;2023-03-01T14:20:43;101985.38;;;8.99;100.00
3434;BME280;1730;41.932;25.548;2023-03-01T14:23:16;102014.06;;;9.18;100.00
3434;BME280;1730;41.932;25.548;2023-03-01T14:25:48;101902.59;;;8.53;100.00
3434;BME280;1730;41.932;25.548;2023-03-01T14:28:20;102014.53;;;9.09;100.00
3434;BME280;1730;41.932;25.548;2023-03-01T14:30:49;102026.25;;;9.08;100.00
3434;BME280;1730;41.932;25.548;2023-03-01T14:36:00;102063.53;;;8.98;100.00
3434;BME280;1730;41.932;25.548;2023-03-01T14:38:45;102061.97;;;8.75;100.00
3434;BME280;1730;41.932;25.548;2023-03-01T14:43:46;101987.13;;;7.91;100.00
3434;BME280;1730;41.932;25.548;2023-03-01T14:49:01;102204.09;;;8.84;100.00
3434;BME280;1730;41.932;25.548;2023-03-01T14:51:27;102223.72;;;9.05;100.00
3434;BME280;1730;41.932;25.548;2023-03-01T14:53:53;102211.75;;;9.12;100.00
3434;BME280;1730;41.932;25.548;2023-03-01T14:56:19;102189.84;;;9.01;100.00
3434;BME280;1730;41.932;25.548;2023-03-01T14:58:44;102178.19;;;9.00;100.00
3434;BME280;1730;41.932;25.548;2023-03-01T15:01:17;102058.13;;;8.43;100.00
3434;BME280;1730;41.932;25.548;2023-03-01T15:03:45;102161.63;;;8.91;100.00
3434;BME280;1730;41.932;25.548;2023-03-01T15:06:15;101905.41;;;7.20;100.00